Tarifa — C6VT6 — position and weather

sailwx.info

Track history (hours):
 
Tides and Currents Weather Stations Pressure Air Temp Water Temp Dewpoint Dewpoint Depression Visibility Wind Speed Wind Dir Waves Ship Positions

Tarifa

Last reported at 2017-Sep-08 14:43 UTC. Time now 2017-Sep-25 11:32 UTC.
Position N 31°59' E 031°20'.
Warning: this ship's position is 16 days out of date.

Length 200 m; draft 9.2 m.

Type: Cargo ship. MMSI: 309847000.

Date/timePositionNaut miles runAvg speedWind from/ knotsBaromVisibWave heightAir tempDewpointWater temp
2017-Sep-08 14:43N 31°59' E 031°20'84116.7
2017-Sep-06 12:15N 36°21' E 015°14'1016.5
2017-Sep-06 11:40N 36°24' E 015°02'316.9
2017-Sep-06 11:30N 36°24' E 014°59'1117.1
2017-Sep-06 10:52N 36°26' E 014°45'616.9
2017-Sep-06 10:30N 36°28' E 014°38'816.6
2017-Sep-06 10:00N 36°30' E 014°28'816.5
2017-Sep-06 09:30N 36°31' E 014°18'816.4
2017-Sep-06 09:00N 36°34' E 014°08'816.6
2017-Sep-06 08:30N 36°37' E 013°59'816.4
2017-Sep-06 08:00N 36°38' E 013°49'816.6
2017-Sep-06 07:30N 36°40' E 013°38'816.7
2017-Sep-06 07:00N 36°43' E 013°28'12616.2
2017-Sep-05 23:13N 37°26' E 010°60'316.1
2017-Sep-05 23:00N 37°27' E 010°56'816.0
2017-Sep-05 22:30N 37°31' E 010°47'916.2
2017-Sep-05 21:58N 37°35' E 010°38'816.4
2017-Sep-05 21:30N 37°39' E 010°29'2116.5
2017-Sep-05 20:14N 37°49' E 010°06'416.5
2017-Sep-05 19:59N 37°51' E 010°02'816.6
2017-Sep-05 19:30N 37°55' E 009°52'1016.5
2017-Sep-05 18:53N 38°01' E 009°41'616.3
2017-Sep-05 18:29N 38°04' E 009°34'816.3
2017-Sep-05 17:59N 38°08' E 009°25'816.2
2017-Sep-05 17:30N 38°12' E 009°17'30416.7
2017-Sep-04 23:16N 40°40' E 003°33'416.6
2017-Sep-04 23:00N 40°43' E 003°28'816.7
2017-Sep-04 22:30N 40°47' E 003°19'816.9
2017-Sep-04 22:00N 40°51' E 003°09'816.7
2017-Sep-04 21:30N 40°55' E 002°59'917.0
2017-Sep-04 21:00N 40°60' E 002°49'817.0
2017-Sep-04 20:30N 41°04' E 002°40'816.7
2017-Sep-04 20:00N 41°08' E 002°30'816.6
2017-Sep-04 19:30N 41°12' E 002°21'914.1
2017-Sep-04 18:50N 41°17' E 002°10'3 7.2
2017-Sep-04 18:24N 41°21' E 002°10'5 0.5
2017-Sep-04 09:05N 41°16' E 002°11'211.8
2017-Sep-04 08:57N 41°14' E 002°10'3 7.5
2017-Sep-04 08:30N 41°11' E 002°09'613.0
2017-Sep-04 08:00N 41°06' E 002°05'815.8
2017-Sep-04 07:29N 40°58' E 001°60'816.0
2017-Sep-04 07:00N 40°51' E 001°55'815.9
2017-Sep-04 06:30N 40°44' E 001°50'816.0
2017-Sep-04 06:00N 40°37' E 001°45'816.0
2017-Sep-04 05:30N 40°30' E 001°40'816.1
2017-Sep-04 05:00N 40°23' E 001°36'816.1
2017-Sep-04 04:31N 40°16' E 001°31'816.0
2017-Sep-04 04:00N 40°09' E 001°26'816.0
2017-Sep-04 03:30N 40°02' E 001°21'816.0
2017-Sep-04 03:00N 39°54' E 001°16'816.1
2017-Sep-04 02:30N 39°47' E 001°11'816.2
2017-Sep-04 02:00N 39°40' E 001°07'916.2
2017-Sep-04 01:28N 39°32' E 001°02'816.2
2017-Sep-04 00:58N 39°25' E 000°57'3116.3
2017-Sep-03 23:03N 38°57' E 000°38'116.4
2017-Sep-03 22:58N 38°56' E 000°38'1216.3
2017-Sep-03 22:13N 38°45' E 000°30'1216.1
2017-Sep-03 21:27N 38°35' E 000°22'716.2
2017-Sep-03 21:01N 38°29' E 000°16'816.3
2017-Sep-03 20:31N 38°22' E 000°11'816.2
2017-Sep-03 19:59N 38°15' E 000°05'816.0
2017-Sep-03 19:31N 38°09' W 000°00'816.1
2017-Sep-03 19:00N 38°02' W 000°06'816.7
2017-Sep-03 18:30N 37°55' W 000°12'917.0
2017-Sep-03 17:59N 37°48' W 000°18'817.0
2017-Sep-03 17:31N 37°41' W 000°24'917.2
2017-Sep-03 17:00N 37°34' W 000°30'917.2
2017-Sep-03 16:28N 37°27' W 000°38'917.3
2017-Sep-03 15:58N 37°21' W 000°46'817.5
2017-Sep-03 15:30N 37°16' W 000°54'917.6
2017-Sep-03 14:59N 37°10' W 001°02'21016.4
2017-Sep-03 02:10N 36°01' W 005°09'318.0
2017-Sep-03 02:00N 36°00' W 005°13'917.5
2017-Sep-03 01:31N 35°59' W 005°24'21315.5
2017-Sep-02 11:49N 36°59' W 009°38'517.1
2017-Sep-02 11:30N 37°04' W 009°39'817.1
2017-Sep-02 11:01N 37°12' W 009°41'917.2
2017-Sep-02 10:31N 37°21' W 009°43'917.1
2017-Sep-02 10:00N 37°29' W 009°45'917.0
2017-Sep-02 09:30N 37°38' W 009°48'917.1
2017-Sep-02 09:01N 37°46' W 009°50'917.0
2017-Sep-02 08:31N 37°54' W 009°52'917.2
2017-Sep-02 08:00N 38°03' W 009°55'918.4
2017-Sep-02 07:31N 38°11' W 009°57'917.9
2017-Sep-02 07:00N 38°20' W 009°60'816.6
2017-Sep-02 06:31N 38°28' W 010°02'816.4
2017-Sep-02 06:00N 38°36' W 010°04'816.9
2017-Sep-02 05:31N 38°45' W 010°06'917.0
2017-Sep-02 05:00N 38°53' W 010°06'817.0
2017-Sep-02 04:31N 39°02' W 010°06'816.9
2017-Sep-02 04:01N 39°10' W 010°06'816.8
2017-Sep-02 03:31N 39°18' W 010°06'816.7
2017-Sep-02 03:01N 39°27' W 010°06'816.7
2017-Sep-02 02:30N 39°35' W 010°06'816.6
2017-Sep-02 02:00N 39°44' W 010°06'816.5
2017-Sep-02 01:30N 39°52' W 010°07'916.6
2017-Sep-02 00:56N 40°01' W 010°07'716.5
2017-Sep-02 00:30N 40°08' W 010°07'56516.6
2017-Aug-31 14:24N 48°58' W 005°31'614.6
2017-Aug-31 14:00N 49°02' W 005°24'6515.4
2017-Aug-31 09:45N 49°36' W 003°58'416.3
2017-Aug-31 09:30N 49°38' W 003°53'816.4
2017-Aug-31 09:00N 49°42' W 003°42'816.6
2017-Aug-31 08:30N 49°46' W 003°30'816.8
2017-Aug-31 08:01N 49°49' W 003°19'816.9
2017-Aug-31 07:30N 49°53' W 003°07'917.0
2017-Aug-31 07:00N 49°57' W 002°55'916.9
2017-Aug-31 06:30N 50°01' W 002°43'2716.3
2017-Aug-31 04:52N 50°11' W 002°04'615.8
2017-Aug-31 04:30N 50°13' W 001°56'815.5
2017-Aug-31 04:00N 50°16' W 001°45'815.4
2017-Aug-31 03:30N 50°19' W 001°34'815.3
2017-Aug-31 02:59N 50°22' W 001°23'715.2
2017-Aug-31 02:30N 50°26' W 001°13'714.9
2017-Aug-31 02:01N 50°30' W 001°03'714.6
2017-Aug-31 01:31N 50°37' W 000°58'5 9.5
2017-Aug-31 01:00N 50°41' W 000°58'714.7
2017-Aug-31 00:31N 50°45' W 001°08'714.6
2017-Aug-31 00:00N 50°47' W 001°19'4 8.3
2017-Aug-30 23:31N 50°51' W 001°21'3 5.3
2017-Aug-30 22:58N 50°53' W 001°24'0 0.0
2017-Aug-30 22:13N 50°53' W 001°24'0 0.0
2017-Aug-30 21:55N 50°53' W 001°24'0 0.0
2017-Aug-30 21:28N 50°53' W 001°24'0 0.0
2017-Aug-30 20:55N 50°53' W 001°24'0 0.0
2017-Aug-30 20:19N 50°53' W 001°24'0 0.0
2017-Aug-30 19:55N 50°53' W 001°24'0 0.0
2017-Aug-30 19:28N 50°53' W 001°24'0 0.0
2017-Aug-30 18:55N 50°53' W 001°24'0 0.0
2017-Aug-30 18:28N 50°53' W 001°24'0 0.0
2017-Aug-30 17:55N 50°53' W 001°24'0 0.0
2017-Aug-30 17:25N 50°53' W 001°24'0 0.0
2017-Aug-30 16:55N 50°53' W 001°24'0 0.0
2017-Aug-30 16:25N 50°53' W 001°24'0 0.0
2017-Aug-30 15:55N 50°53' W 001°24'0 0.0
2017-Aug-30 15:25N 50°53' W 001°24'0 0.0
2017-Aug-30 14:55N 50°53' W 001°24'0 0.0
2017-Aug-30 14:28N 50°53' W 001°24'0 0.0
2017-Aug-30 13:55N 50°53' W 001°24'0 0.0
2017-Aug-30 13:25N 50°53' W 001°24'0 0.0
2017-Aug-30 12:49N 50°53' W 001°24'0 0.0
2017-Aug-30 12:28N 50°53' W 001°24'0 0.0
2017-Aug-30 11:58N 50°53' W 001°24'0 0.0
2017-Aug-30 11:13N 50°53' W 001°24'0 0.0
2017-Aug-30 10:49N 50°53' W 001°24'0 0.0
2017-Aug-30 10:19N 50°53' W 001°24'0 0.0
2017-Aug-30 09:55N 50°53' W 001°24'0 0.0
2017-Aug-30 09:28N 50°53' W 001°24'0 0.0
2017-Aug-30 08:58N 50°53' W 001°24'0 0.0
2017-Aug-30 08:13N 50°53' W 001°24'0 0.0
2017-Aug-30 07:49N 50°53' W 001°24'0 0.0
2017-Aug-30 07:28N 50°53' W 001°24'0 0.0
2017-Aug-30 06:49N 50°53' W 001°24'0 0.0
2017-Aug-30 06:16N 50°53' W 001°24'0 0.0
2017-Aug-30 05:58N 50°53' W 001°24'0 0.0
2017-Aug-30 05:22N 50°53' W 001°24'0 0.0
2017-Aug-30 04:49N 50°53' W 001°24'0 0.0
2017-Aug-30 04:22N 50°53' W 001°24'0 0.0
2017-Aug-30 03:58N 50°53' W 001°24'0 0.0
2017-Aug-30 03:25N 50°53' W 001°24'0 0.0
2017-Aug-30 02:58N 50°53' W 001°24'0 0.0
2017-Aug-30 02:22N 50°53' W 001°24'0 0.0
2017-Aug-30 01:58N 50°53' W 001°24'0 0.0
2017-Aug-30 01:25N 50°53' W 001°24'0 0.0
2017-Aug-30 00:58N 50°53' W 001°24'0 0.0
2017-Aug-30 00:25N 50°53' W 001°24'0 0.0
2017-Aug-29 23:55N 50°53' W 001°24'0 0.0
2017-Aug-29 23:25N 50°53' W 001°24'0 0.0
2017-Aug-29 22:58N 50°53' W 001°24'0 0.0
2017-Aug-29 22:28N 50°53' W 001°24'0 0.1
2017-Aug-29 22:00N 50°53' W 001°24'2 4.8
2017-Aug-29 21:31N 50°51' W 001°21'4 8.0
2017-Aug-29 21:00N 50°48' W 001°18'5 9.5
2017-Aug-29 20:30N 50°46' W 001°11'714.4
2017-Aug-29 20:00N 50°43' W 001°01'510.6
2017-Aug-29 19:30N 50°39' W 000°56'4 7.8
2017-Aug-29 19:00N 50°35' W 000°58'3 5.9
2017-Aug-29 18:30N 50°32' W 000°59'1 1.2
2017-Aug-29 18:00N 50°33' W 000°58'1 1.1
2017-Aug-29 17:30N 50°33' W 000°57'1 1.1
2017-Aug-29 17:00N 50°33' W 000°57'0 0.5
2017-Aug-29 16:30N 50°34' W 000°57'0 0.1
2017-Aug-29 16:00N 50°34' W 000°56'1 1.0
2017-Aug-29 15:30N 50°33' W 000°56'3 6.1
2017-Aug-29 15:00N 50°35' W 000°52'  
Track history (hours):
 
Tides and Currents Weather Stations Pressure Air Temp Water Temp Dewpoint Dewpoint Depression Visibility Wind Speed Wind Dir Waves Ship Positions

Tarifa

Last reported at 2017-Sep-08 14:43 UTC. Time now 2017-Sep-25 11:32 UTC.
Position N 31°59' E 031°20'.
Warning: this ship's position is 16 days out of date.

Length 200 m; draft 9.2 m.

Type: Cargo ship. MMSI: 309847000.

Date/timePositionNaut miles runAvg speedWind from/ knotsBaromVisibWave heightAir tempDewpointWater temp
2017-Sep-08 14:43N 31°59' E 031°20'84116.7
2017-Sep-06 12:15N 36°21' E 015°14'1016.5
2017-Sep-06 11:40N 36°24' E 015°02'316.9
2017-Sep-06 11:30N 36°24' E 014°59'1117.1
2017-Sep-06 10:52N 36°26' E 014°45'616.9
2017-Sep-06 10:30N 36°28' E 014°38'816.6
2017-Sep-06 10:00N 36°30' E 014°28'816.5
2017-Sep-06 09:30N 36°31' E 014°18'816.4
2017-Sep-06 09:00N 36°34' E 014°08'816.6
2017-Sep-06 08:30N 36°37' E 013°59'816.4
2017-Sep-06 08:00N 36°38' E 013°49'816.6
2017-Sep-06 07:30N 36°40' E 013°38'816.7
2017-Sep-06 07:00N 36°43' E 013°28'12616.2
2017-Sep-05 23:13N 37°26' E 010°60'316.1
2017-Sep-05 23:00N 37°27' E 010°56'816.0
2017-Sep-05 22:30N 37°31' E 010°47'916.2
2017-Sep-05 21:58N 37°35' E 010°38'816.4
2017-Sep-05 21:30N 37°39' E 010°29'2116.5
2017-Sep-05 20:14N 37°49' E 010°06'416.5
2017-Sep-05 19:59N 37°51' E 010°02'816.6
2017-Sep-05 19:30N 37°55' E 009°52'1016.5
2017-Sep-05 18:53N 38°01' E 009°41'616.3
2017-Sep-05 18:29N 38°04' E 009°34'816.3
2017-Sep-05 17:59N 38°08' E 009°25'816.2
2017-Sep-05 17:30N 38°12' E 009°17'30416.7
2017-Sep-04 23:16N 40°40' E 003°33'416.6
2017-Sep-04 23:00N 40°43' E 003°28'816.7
2017-Sep-04 22:30N 40°47' E 003°19'816.9
2017-Sep-04 22:00N 40°51' E 003°09'816.7
2017-Sep-04 21:30N 40°55' E 002°59'917.0
2017-Sep-04 21:00N 40°60' E 002°49'817.0
2017-Sep-04 20:30N 41°04' E 002°40'816.7
2017-Sep-04 20:00N 41°08' E 002°30'816.6
2017-Sep-04 19:30N 41°12' E 002°21'914.1
2017-Sep-04 18:50N 41°17' E 002°10'3 7.2
2017-Sep-04 18:24N 41°21' E 002°10'5 0.5
2017-Sep-04 09:05N 41°16' E 002°11'211.8
2017-Sep-04 08:57N 41°14' E 002°10'3 7.5
2017-Sep-04 08:30N 41°11' E 002°09'613.0
2017-Sep-04 08:00N 41°06' E 002°05'815.8
2017-Sep-04 07:29N 40°58' E 001°60'816.0
2017-Sep-04 07:00N 40°51' E 001°55'815.9
2017-Sep-04 06:30N 40°44' E 001°50'816.0
2017-Sep-04 06:00N 40°37' E 001°45'816.0
2017-Sep-04 05:30N 40°30' E 001°40'816.1
2017-Sep-04 05:00N 40°23' E 001°36'816.1
2017-Sep-04 04:31N 40°16' E 001°31'816.0
2017-Sep-04 04:00N 40°09' E 001°26'816.0
2017-Sep-04 03:30N 40°02' E 001°21'816.0
2017-Sep-04 03:00N 39°54' E 001°16'816.1
2017-Sep-04 02:30N 39°47' E 001°11'816.2
2017-Sep-04 02:00N 39°40' E 001°07'916.2
2017-Sep-04 01:28N 39°32' E 001°02'816.2
2017-Sep-04 00:58N 39°25' E 000°57'3116.3
2017-Sep-03 23:03N 38°57' E 000°38'116.4
2017-Sep-03 22:58N 38°56' E 000°38'1216.3
2017-Sep-03 22:13N 38°45' E 000°30'1216.1
2017-Sep-03 21:27N 38°35' E 000°22'716.2
2017-Sep-03 21:01N 38°29' E 000°16'816.3
2017-Sep-03 20:31N 38°22' E 000°11'816.2
2017-Sep-03 19:59N 38°15' E 000°05'816.0
2017-Sep-03 19:31N 38°09' W 000°00'816.1
2017-Sep-03 19:00N 38°02' W 000°06'816.7
2017-Sep-03 18:30N 37°55' W 000°12'917.0
2017-Sep-03 17:59N 37°48' W 000°18'817.0
2017-Sep-03 17:31N 37°41' W 000°24'917.2
2017-Sep-03 17:00N 37°34' W 000°30'917.2
2017-Sep-03 16:28N 37°27' W 000°38'917.3
2017-Sep-03 15:58N 37°21' W 000°46'817.5
2017-Sep-03 15:30N 37°16' W 000°54'917.6
2017-Sep-03 14:59N 37°10' W 001°02'21016.4
2017-Sep-03 02:10N 36°01' W 005°09'318.0
2017-Sep-03 02:00N 36°00' W 005°13'917.5
2017-Sep-03 01:31N 35°59' W 005°24'21315.5
2017-Sep-02 11:49N 36°59' W 009°38'517.1
2017-Sep-02 11:30N 37°04' W 009°39'817.1
2017-Sep-02 11:01N 37°12' W 009°41'917.2
2017-Sep-02 10:31N 37°21' W 009°43'917.1
2017-Sep-02 10:00N 37°29' W 009°45'917.0
2017-Sep-02 09:30N 37°38' W 009°48'917.1
2017-Sep-02 09:01N 37°46' W 009°50'917.0
2017-Sep-02 08:31N 37°54' W 009°52'917.2
2017-Sep-02 08:00N 38°03' W 009°55'918.4
2017-Sep-02 07:31N 38°11' W 009°57'917.9
2017-Sep-02 07:00N 38°20' W 009°60'816.6
2017-Sep-02 06:31N 38°28' W 010°02'816.4
2017-Sep-02 06:00N 38°36' W 010°04'816.9
2017-Sep-02 05:31N 38°45' W 010°06'917.0
2017-Sep-02 05:00N 38°53' W 010°06'817.0
2017-Sep-02 04:31N 39°02' W 010°06'816.9
2017-Sep-02 04:01N 39°10' W 010°06'816.8
2017-Sep-02 03:31N 39°18' W 010°06'816.7
2017-Sep-02 03:01N 39°27' W 010°06'816.7
2017-Sep-02 02:30N 39°35' W 010°06'816.6
2017-Sep-02 02:00N 39°44' W 010°06'816.5
2017-Sep-02 01:30N 39°52' W 010°07'916.6
2017-Sep-02 00:56N 40°01' W 010°07'716.5
2017-Sep-02 00:30N 40°08' W 010°07'56516.6
2017-Aug-31 14:24N 48°58' W 005°31'614.6
2017-Aug-31 14:00N 49°02' W 005°24'6515.4
2017-Aug-31 09:45N 49°36' W 003°58'416.3
2017-Aug-31 09:30N 49°38' W 003°53'816.4
2017-Aug-31 09:00N 49°42' W 003°42'816.6
2017-Aug-31 08:30N 49°46' W 003°30'816.8
2017-Aug-31 08:01N 49°49' W 003°19'816.9
2017-Aug-31 07:30N 49°53' W 003°07'917.0
2017-Aug-31 07:00N 49°57' W 002°55'916.9
2017-Aug-31 06:30N 50°01' W 002°43'2716.3
2017-Aug-31 04:52N 50°11' W 002°04'615.8
2017-Aug-31 04:30N 50°13' W 001°56'815.5
2017-Aug-31 04:00N 50°16' W 001°45'815.4
2017-Aug-31 03:30N 50°19' W 001°34'815.3
2017-Aug-31 02:59N 50°22' W 001°23'715.2
2017-Aug-31 02:30N 50°26' W 001°13'714.9
2017-Aug-31 02:01N 50°30' W 001°03'714.6
2017-Aug-31 01:31N 50°37' W 000°58'5 9.5
2017-Aug-31 01:00N 50°41' W 000°58'714.7
2017-Aug-31 00:31N 50°45' W 001°08'714.6
2017-Aug-31 00:00N 50°47' W 001°19'4 8.3
2017-Aug-30 23:31N 50°51' W 001°21'3 5.3
2017-Aug-30 22:58N 50°53' W 001°24'0 0.0
2017-Aug-30 22:13N 50°53' W 001°24'0 0.0
2017-Aug-30 21:55N 50°53' W 001°24'0 0.0
2017-Aug-30 21:28N 50°53' W 001°24'0 0.0
2017-Aug-30 20:55N 50°53' W 001°24'0 0.0
2017-Aug-30 20:19N 50°53' W 001°24'0 0.0
2017-Aug-30 19:55N 50°53' W 001°24'0 0.0
2017-Aug-30 19:28N 50°53' W 001°24'0 0.0
2017-Aug-30 18:55N 50°53' W 001°24'0 0.0
2017-Aug-30 18:28N 50°53' W 001°24'0 0.0
2017-Aug-30 17:55N 50°53' W 001°24'0 0.0
2017-Aug-30 17:25N 50°53' W 001°24'0 0.0
2017-Aug-30 16:55N 50°53' W 001°24'0 0.0
2017-Aug-30 16:25N 50°53' W 001°24'0 0.0
2017-Aug-30 15:55N 50°53' W 001°24'0 0.0
2017-Aug-30 15:25N 50°53' W 001°24'0 0.0
2017-Aug-30 14:55N 50°53' W 001°24'0 0.0
2017-Aug-30 14:28N 50°53' W 001°24'0 0.0
2017-Aug-30 13:55N 50°53' W 001°24'0 0.0
2017-Aug-30 13:25N 50°53' W 001°24'0 0.0
2017-Aug-30 12:49N 50°53' W 001°24'0 0.0
2017-Aug-30 12:28N 50°53' W 001°24'0 0.0
2017-Aug-30 11:58N 50°53' W 001°24'0 0.0
2017-Aug-30 11:13N 50°53' W 001°24'0 0.0
2017-Aug-30 10:49N 50°53' W 001°24'0 0.0
2017-Aug-30 10:19N 50°53' W 001°24'0 0.0
2017-Aug-30 09:55N 50°53' W 001°24'0 0.0
2017-Aug-30 09:28N 50°53' W 001°24'0 0.0
2017-Aug-30 08:58N 50°53' W 001°24'0 0.0
2017-Aug-30 08:13N 50°53' W 001°24'0 0.0
2017-Aug-30 07:49N 50°53' W 001°24'0 0.0
2017-Aug-30 07:28N 50°53' W 001°24'0 0.0
2017-Aug-30 06:49N 50°53' W 001°24'0 0.0
2017-Aug-30 06:16N 50°53' W 001°24'0 0.0
2017-Aug-30 05:58N 50°53' W 001°24'0 0.0
2017-Aug-30 05:22N 50°53' W 001°24'0 0.0
2017-Aug-30 04:49N 50°53' W 001°24'0 0.0
2017-Aug-30 04:22N 50°53' W 001°24'0 0.0
2017-Aug-30 03:58N 50°53' W 001°24'0 0.0
2017-Aug-30 03:25N 50°53' W 001°24'0 0.0
2017-Aug-30 02:58N 50°53' W 001°24'0 0.0
2017-Aug-30 02:22N 50°53' W 001°24'0 0.0
2017-Aug-30 01:58N 50°53' W 001°24'0 0.0
2017-Aug-30 01:25N 50°53' W 001°24'0 0.0
2017-Aug-30 00:58N 50°53' W 001°24'0 0.0
2017-Aug-30 00:25N 50°53' W 001°24'0 0.0
2017-Aug-29 23:55N 50°53' W 001°24'0 0.0
2017-Aug-29 23:25N 50°53' W 001°24'0 0.0
2017-Aug-29 22:58N 50°53' W 001°24'0 0.0
2017-Aug-29 22:28N 50°53' W 001°24'0 0.1
2017-Aug-29 22:00N 50°53' W 001°24'2 4.8
2017-Aug-29 21:31N 50°51' W 001°21'4 8.0
2017-Aug-29 21:00N 50°48' W 001°18'5 9.5
2017-Aug-29 20:30N 50°46' W 001°11'714.4
2017-Aug-29 20:00N 50°43' W 001°01'510.6
2017-Aug-29 19:30N 50°39' W 000°56'4 7.8
2017-Aug-29 19:00N 50°35' W 000°58'3 5.9
2017-Aug-29 18:30N 50°32' W 000°59'1 1.2
2017-Aug-29 18:00N 50°33' W 000°58'1 1.1
2017-Aug-29 17:30N 50°33' W 000°57'1 1.1
2017-Aug-29 17:00N 50°33' W 000°57'0 0.5
2017-Aug-29 16:30N 50°34' W 000°57'0 0.1
2017-Aug-29 16:00N 50°34' W 000°56'1 1.0
2017-Aug-29 15:30N 50°33' W 000°56'3 6.1
2017-Aug-29 15:00N 50°35' W 000°52'  

Dump ship's entire track history